createdAt,value
2019-01-26T00:04:29.460Z,6.42
2019-01-26T00:12:52.480Z,6.29
2019-01-26T00:33:06.159Z,6.24
2019-01-26T00:39:02.902Z,6.38
2019-01-26T01:18:21.088Z,6.75
2019-01-26T01:28:02.291Z,5.52
2019-01-26T01:30:32.227Z,5.49
2019-01-26T01:39:00.868Z,5.94
2019-01-26T01:44:02.888Z,5.55
2019-01-26T01:46:29.892Z,6.18
2019-01-26T01:49:48.556Z,5.75
2019-01-26T01:55:37.641Z,5.88
2019-01-26T02:03:50.152Z,6.39
2019-01-26T02:22:33.391Z,5.72
2019-01-26T02:40:43.235Z,5.85
2019-01-26T02:43:26.760Z,5.81
2019-01-26T02:46:15.964Z,5.99
2019-01-26T02:48:48.379Z,5.78
2019-01-26T02:54:16.321Z,6.44
2019-01-26T02:56:59.952Z,6.69
2019-01-26T02:59:42.727Z,6.86
2019-01-26T03:08:28.900Z,7.02
2019-01-26T03:12:28.663Z,7.08
2019-01-26T03:13:39.216Z,7.10
2019-01-26T03:16:24.410Z,7.17
2019-01-26T03:21:49.329Z,7.01
2019-01-26T03:27:23.281Z,7.13
2019-01-26T03:29:50.436Z,6.98
2019-01-26T03:32:27.757Z,7.13
2019-01-26T03:35:07.150Z,7.04
2019-01-26T03:37:38.299Z,6.80
2019-01-26T03:40:22.891Z,6.93
2019-01-26T03:42:57.900Z,7.13
2019-01-26T03:45:35.418Z,7.07
2019-01-26T03:48:05.306Z,7.14
2019-01-26T03:50:38.088Z,7.04
2019-01-26T03:53:25.883Z,7.22
2019-01-26T03:56:04.784Z,7.20
2019-01-26T03:58:36.507Z,7.29
2019-01-26T04:01:05.287Z,7.27
2019-01-26T04:03:35.588Z,7.23
2019-01-26T04:06:04.222Z,7.34
2019-01-26T04:08:31.240Z,7.44
2019-01-26T04:11:00.091Z,7.33
2019-01-26T04:13:39.588Z,7.36
2019-01-26T04:16:13.227Z,7.40
2019-01-26T04:18:42.061Z,7.20
2019-01-26T04:21:15.750Z,7.29
2019-01-26T04:23:50.634Z,7.40
2019-01-26T04:26:18.909Z,7.45
2019-01-26T04:28:59.557Z,7.53
2019-01-26T04:31:29.231Z,7.43
2019-01-26T04:34:10.043Z,7.42
2019-01-26T04:36:38.057Z,7.66
2019-01-26T04:39:05.345Z,7.62
2019-01-26T04:41:35.374Z,7.74
2019-01-26T04:44:15.474Z,7.78
2019-01-26T04:46:33.281Z,7.71
2019-01-26T04:49:06.349Z,7.52
2019-01-26T04:51:54.732Z,7.51
2019-01-26T04:54:17.629Z,7.67
2019-01-26T04:56:58.365Z,7.66
2019-01-26T04:59:24.966Z,7.87
2019-01-26T05:02:00.208Z,7.85
2019-01-26T05:04:30.959Z,7.99
2019-01-26T05:07:07.469Z,7.87
2019-01-26T05:09:37.863Z,7.89
2019-01-26T05:12:06.556Z,7.83
2019-01-26T05:14:33.813Z,7.82
2019-01-26T05:17:05.261Z,7.91
2019-01-26T05:19:32.829Z,7.91
2019-01-26T05:22:07.086Z,7.71
2019-01-26T05:24:36.213Z,7.98
2019-01-26T05:27:18.891Z,8.01
2019-01-26T05:29:32.426Z,8.23
2019-01-26T05:32:06.993Z,7.79
2019-01-26T05:34:37.302Z,7.99
2019-01-26T05:37:15.630Z,7.98
2019-01-26T05:39:58.839Z,7.98
2019-01-26T05:42:17.516Z,7.94
2019-01-26T05:44:47.725Z,7.93
2019-01-26T05:47:14.995Z,7.88
2019-01-26T05:49:54.548Z,8.07
2019-01-26T05:52:21.772Z,8.10
2019-01-26T05:54:48.958Z,7.86
2019-01-26T05:57:20.570Z,7.99
2019-01-26T05:59:54.496Z,8.16
2019-01-26T06:13:52.744Z,8.17
2019-01-26T06:19:29.654Z,8.05
2019-01-26T06:22:10.091Z,7.93
2019-01-26T06:24:41.851Z,8.04
2019-01-26T06:28:13.513Z,8.08
2019-01-26T06:30:15.704Z,8.25
2019-01-26T06:32:46.574Z,8.34
2019-01-26T06:35:18.159Z,8.46
2019-01-26T06:40:44.248Z,8.39
2019-01-26T06:43:17.592Z,8.30
2019-01-26T06:45:48.730Z,8.33
2019-01-26T06:48:20.441Z,8.33
2019-01-26T06:53:46.395Z,8.72
2019-01-26T06:56:17.963Z,8.64
2019-01-26T06:59:10.194Z,8.49
2019-01-26T07:01:56.844Z,8.45
2019-01-26T07:04:33.111Z,8.43
2019-01-26T07:12:37.001Z,8.47
2019-01-26T07:18:09.398Z,8.42
2019-01-26T07:20:32.194Z,8.76
2019-01-26T07:26:03.704Z,8.45
2019-01-26T07:31:08.879Z,8.08
2019-01-26T07:33:35.922Z,8.33
2019-01-26T07:36:03.435Z,8.22
2019-01-26T07:38:30.548Z,8.42
2019-01-26T07:40:57.911Z,8.50
2019-01-26T07:43:25.039Z,8.62
2019-01-26T07:45:52.246Z,8.33
2019-01-26T07:48:19.558Z,8.47
2019-01-26T07:50:46.555Z,8.75
2019-01-26T07:53:14.720Z,8.70
2019-01-26T07:55:55.660Z,8.99
2019-01-26T07:58:47.110Z,8.78
2019-01-26T08:01:12.735Z,8.84
2019-01-26T08:03:40.283Z,8.40
2019-01-26T08:11:37.420Z,8.76
2019-01-26T08:16:57.073Z,8.71
2019-01-26T08:19:33.233Z,8.56
2019-01-26T08:25:21.245Z,8.71
2019-01-26T08:27:56.032Z,8.64
2019-01-26T08:30:28.803Z,8.61
2019-01-26T08:35:46.694Z,8.68
2019-01-26T08:41:12.951Z,8.86
2019-01-26T08:44:06.548Z,8.70
2019-01-26T08:49:35.632Z,8.93
2019-01-26T08:52:02.650Z,8.88
2019-01-26T08:54:29.906Z,8.78
2019-01-26T08:56:57.013Z,8.50
2019-01-26T08:59:24.077Z,8.87
2019-01-26T09:01:51.154Z,9.05
2019-01-26T09:04:18.490Z,9.16
2019-01-26T09:06:47.397Z,8.88
2019-01-26T09:09:14.371Z,9.26
2019-01-26T09:11:41.621Z,9.29
2019-01-26T09:14:08.755Z,9.47
2019-01-26T09:16:35.794Z,9.69
2019-01-26T09:19:02.977Z,9.75
2019-01-26T09:21:39.084Z,9.61
2019-01-26T09:24:06.506Z,9.65
2019-01-26T09:26:34.054Z,9.62
2019-01-26T09:29:01.109Z,9.63
2019-01-26T09:31:28.160Z,9.56
2019-01-26T09:33:55.370Z,9.74
2019-01-26T09:36:28.459Z,9.68
2019-01-26T09:38:55.449Z,9.77
2019-01-26T09:41:22.519Z,9.73
2019-01-26T09:43:50.145Z,9.82
2019-01-26T09:46:17.264Z,9.70
2019-01-26T09:48:46.320Z,9.98
2019-01-26T09:51:13.250Z,9.98
2019-01-26T09:53:40.351Z,9.82
2019-01-26T09:56:07.898Z,9.71
2019-01-26T09:58:34.981Z,9.74
2019-01-26T10:01:02.236Z,9.92
2019-01-26T10:03:29.235Z,10.02
2019-01-26T10:05:56.192Z,9.99
2019-01-26T10:08:23.124Z,9.96
2019-01-26T10:10:50.078Z,9.53
2019-01-26T10:13:17.367Z,9.56
2019-01-26T10:15:44.545Z,9.49
2019-01-26T10:18:11.462Z,9.50
2019-01-26T10:20:38.355Z,9.51
2019-01-26T10:23:05.252Z,9.74
2019-01-26T10:25:32.136Z,9.74
2019-01-26T10:27:59.364Z,9.93
2019-01-26T10:30:26.605Z,10.01
2019-01-26T10:32:53.663Z,10.27
2019-01-26T10:35:20.928Z,10.07
2019-01-26T10:37:47.965Z,10.12
2019-01-26T10:40:14.926Z,9.81
2019-01-26T10:42:44.227Z,9.59
2019-01-26T10:45:11.384Z,9.64
2019-01-26T10:47:38.727Z,9.55
2019-01-26T10:50:06.046Z,9.51
2019-01-26T10:52:33.124Z,9.61
2019-01-26T10:55:00.301Z,9.53
2019-01-26T10:57:27.174Z,9.48
2019-01-26T10:59:54.558Z,9.45
2019-01-26T11:02:22.016Z,9.31
2019-01-26T11:04:49.285Z,9.50
2019-01-26T11:07:16.285Z,9.59
2019-01-26T11:09:44.515Z,9.49
2019-01-26T11:12:11.609Z,9.43
2019-01-26T11:14:39.896Z,9.42
2019-01-26T11:17:14.192Z,9.42
2019-01-26T11:19:38.195Z,9.39
2019-01-26T11:25:00.545Z,9.43
2019-01-26T11:27:24.669Z,9.38
2019-01-26T11:29:51.790Z,9.38
2019-01-26T11:32:18.686Z,9.38
2019-01-26T11:34:45.997Z,9.45
2019-01-26T11:37:14.554Z,9.36
2019-01-26T11:39:52.289Z,9.42
2019-01-26T11:45:11.672Z,9.46
2019-01-26T11:47:42.966Z,9.41
2019-01-26T11:50:43.318Z,9.43
2019-01-26T11:58:06.079Z,9.40
2019-01-26T12:00:59.127Z,9.23
2019-01-26T12:03:28.850Z,9.46
2019-01-26T12:08:46.855Z,9.82
2019-01-26T12:51:05.280Z,10.15
2019-01-26T13:25:08.763Z,10.67
2019-01-26T13:27:36.751Z,10.62
2019-01-26T13:46:33.599Z,10.46
2019-01-26T14:08:35.049Z,10.84
2019-01-26T14:11:02.351Z,10.97
2019-01-26T14:13:29.317Z,11.32
2019-01-26T14:15:56.225Z,11.41
2019-01-26T14:18:23.123Z,11.40
2019-01-26T14:20:50.073Z,11.52
2019-01-26T14:23:17.379Z,11.60
2019-01-26T14:25:44.273Z,11.82
2019-01-26T14:28:11.591Z,11.78
2019-01-26T14:30:38.531Z,11.17
2019-01-26T14:33:05.477Z,10.86
2019-01-26T14:35:32.672Z,11.14
2019-01-26T14:37:59.805Z,11.01
2019-01-26T14:40:26.715Z,11.39
2019-01-26T14:42:54.384Z,11.44
2019-01-26T14:45:22.899Z,11.48
2019-01-26T14:47:50.898Z,11.36
2019-01-26T14:50:17.918Z,11.22
2019-01-26T14:52:44.931Z,11.50
2019-01-26T14:55:12.555Z,11.58
2019-01-26T14:57:39.845Z,11.16
2019-01-26T15:00:07.116Z,11.17
2019-01-26T15:02:34.097Z,11.39
2019-01-26T15:05:01.348Z,11.36
2019-01-26T15:07:29.004Z,10.93
2019-01-26T15:09:56.233Z,11.24
2019-01-26T15:12:23.588Z,11.51
2019-01-26T15:14:51.069Z,11.56
2019-01-26T15:17:18.053Z,11.50
2019-01-26T15:19:45.315Z,10.86
2019-01-26T15:22:12.478Z,11.29
2019-01-26T15:24:39.746Z,11.32
2019-01-26T15:27:06.726Z,11.17
2019-01-26T15:29:33.721Z,11.00
2019-01-26T15:32:00.704Z,11.46
2019-01-26T15:34:27.600Z,11.43
2019-01-26T15:36:54.465Z,11.29
2019-01-26T15:39:21.707Z,11.39
2019-01-26T15:41:48.666Z,11.02
2019-01-26T15:44:15.543Z,11.15
2019-01-26T15:46:48.564Z,10.85
2019-01-26T15:49:15.852Z,10.96
2019-01-26T15:51:42.810Z,10.62
2019-01-26T15:54:09.678Z,10.93
2019-01-26T15:56:38.102Z,11.00
2019-01-26T15:59:05.477Z,11.19
2019-01-26T16:01:32.455Z,10.97
2019-01-26T16:03:59.404Z,11.00
2019-01-26T16:06:27.346Z,10.86
2019-01-26T16:08:54.283Z,11.05
2019-01-26T16:11:21.256Z,11.01
2019-01-26T16:13:48.503Z,10.94
2019-01-26T16:16:18.398Z,10.95
2019-01-26T16:18:45.357Z,10.54
2019-01-26T16:21:12.366Z,10.70
2019-01-26T16:23:39.352Z,10.86
2019-01-26T16:26:06.734Z,10.59
2019-01-26T16:28:34.329Z,10.77
2019-01-26T16:31:09.868Z,10.64
2019-01-26T16:33:37.855Z,10.80
2019-01-26T16:36:08.818Z,10.93
2019-01-26T16:41:39.160Z,10.94
2019-01-26T16:44:06.103Z,10.93
2019-01-26T16:46:42.126Z,10.72
2019-01-26T16:49:09.111Z,11.03
2019-01-26T16:51:36.522Z,10.77
2019-01-26T16:54:03.558Z,10.90
2019-01-26T16:56:30.543Z,11.09
2019-01-26T16:59:02.773Z,11.20
2019-01-26T17:01:31.809Z,11.35
2019-01-26T17:04:01.576Z,11.21
2019-01-26T17:06:28.597Z,11.06
2019-01-26T17:08:56.794Z,10.88
2019-01-26T17:11:25.405Z,11.08
2019-01-26T17:13:52.626Z,10.94
2019-01-26T17:16:23.506Z,10.96
2019-01-26T17:18:50.491Z,11.06
2019-01-26T17:21:21.372Z,11.09
2019-01-26T17:23:53.516Z,11.10
2019-01-26T17:26:20.830Z,11.16
2019-01-26T17:28:49.508Z,10.99
2019-01-26T17:31:18.106Z,11.02
2019-01-26T17:34:00.382Z,11.11
2019-01-26T17:38:55.901Z,11.18
2019-01-26T17:52:44.915Z,11.19
2019-01-26T17:55:15.513Z,11.48
2019-01-26T17:57:46.144Z,11.77
2019-01-26T18:00:16.727Z,11.88
2019-01-26T18:02:44.312Z,11.81
2019-01-26T18:05:13.557Z,11.80
2019-01-26T18:07:48.062Z,11.40
2019-01-26T18:10:15.349Z,11.36
2019-01-26T18:12:45.511Z,11.48
2019-01-26T18:15:13.154Z,11.74
2019-01-26T18:17:40.228Z,11.73
2019-01-26T18:20:07.185Z,11.82
2019-01-26T18:22:34.604Z,11.68
2019-01-26T18:25:02.007Z,11.50
2019-01-26T18:27:34.994Z,11.73
2019-01-26T18:30:09.516Z,11.45
2019-01-26T18:35:08.753Z,11.85
2019-01-26T18:37:35.914Z,11.69
2019-01-26T18:40:06.462Z,11.76
2019-01-26T18:42:33.812Z,11.93
2019-01-26T18:45:00.903Z,11.69
2019-01-26T18:47:28.461Z,11.01
2019-01-26T18:49:55.641Z,11.42
2019-01-26T18:52:25.034Z,11.58
2019-01-26T18:54:53.160Z,11.65
2019-01-26T18:57:20.344Z,11.75
2019-01-26T18:59:48.725Z,11.88
2019-01-26T19:02:15.872Z,11.91
2019-01-26T19:04:45.848Z,11.67
2019-01-26T19:07:39.725Z,11.61
2019-01-26T19:10:07.913Z,11.48
2019-01-26T19:12:39.243Z,11.51
2019-01-26T19:15:07.461Z,11.55
2019-01-26T19:17:38.201Z,11.59
2019-01-26T19:20:09.447Z,11.34
2019-01-26T19:22:38.044Z,11.65
2019-01-26T19:25:11.162Z,11.82
2019-01-26T19:27:41.324Z,11.74
2019-01-26T19:30:12.101Z,11.60
2019-01-26T19:32:39.655Z,11.32
2019-01-26T19:35:13.887Z,11.39
2019-01-26T19:37:45.551Z,11.86
2019-01-26T19:40:20.096Z,11.84
2019-01-26T19:42:47.434Z,11.43
2019-01-26T19:45:14.400Z,11.40
2019-01-26T19:47:42.740Z,11.26
2019-01-26T19:50:10.402Z,10.92
2019-01-26T19:52:37.434Z,10.93
2019-01-26T19:55:05.733Z,10.98
2019-01-26T19:57:32.781Z,11.08
2019-01-26T19:59:59.985Z,11.19
2019-01-26T20:02:26.885Z,11.16
2019-01-26T20:04:53.905Z,10.85
2019-01-26T20:07:22.238Z,11.05
2019-01-26T20:09:49.616Z,11.10
2019-01-26T20:12:16.833Z,11.17
2019-01-26T20:14:44.063Z,11.22
2019-01-26T20:17:11.197Z,11.46
2019-01-26T20:19:38.659Z,11.51
2019-01-26T20:22:05.614Z,11.23
2019-01-26T20:24:32.870Z,11.34
2019-01-26T20:27:00.015Z,11.42
2019-01-26T20:29:27.345Z,11.50
2019-01-26T20:31:54.336Z,11.46
2019-01-26T20:34:21.696Z,11.30
2019-01-26T20:36:49.993Z,11.41
2019-01-26T20:39:18.206Z,11.34
2019-01-26T20:41:45.143Z,11.33
2019-01-26T20:44:14.206Z,11.28
2019-01-26T20:46:41.415Z,11.33
2019-01-26T20:49:08.346Z,11.28
2019-01-26T20:51:35.343Z,11.18
2019-01-26T20:54:02.299Z,11.36
2019-01-26T20:56:29.201Z,11.44
2019-01-26T20:58:58.122Z,11.39
2019-01-26T21:01:25.746Z,11.46
2019-01-26T21:04:01.601Z,11.28
2019-01-26T21:06:26.918Z,11.53
2019-01-26T21:08:54.315Z,11.21
2019-01-26T21:11:21.249Z,11.37
2019-01-26T21:13:48.113Z,11.30
2019-01-26T21:16:14.981Z,11.35
2019-01-26T21:18:42.159Z,11.27
2019-01-26T21:21:10.742Z,11.25
2019-01-26T21:23:37.977Z,11.32
2019-01-26T21:26:07.209Z,11.12
2019-01-26T21:28:34.195Z,11.25
2019-01-26T21:33:34.584Z,11.64
2019-01-26T21:36:01.488Z,11.74
2019-01-26T21:38:47.907Z,11.56
2019-01-26T21:41:15.188Z,11.57
2019-01-26T21:43:42.208Z,11.64
2019-01-26T21:46:09.129Z,11.66
2019-01-26T21:48:36.440Z,11.84
2019-01-26T21:51:03.812Z,11.93
2019-01-26T21:53:33.152Z,11.84
2019-01-26T21:56:00.542Z,11.84
2019-01-26T21:58:27.495Z,11.77
2019-01-26T22:00:56.896Z,11.55
2019-01-26T22:03:24.279Z,11.44
2019-01-26T22:05:51.277Z,11.45
2019-01-26T22:08:18.330Z,11.41
2019-01-26T22:10:45.332Z,11.45
2019-01-26T22:13:12.349Z,11.47
2019-01-26T22:15:39.594Z,11.24
2019-01-26T22:18:06.478Z,11.28
2019-01-26T22:20:33.452Z,11.32
2019-01-26T22:23:00.447Z,11.26
2019-01-26T22:25:27.787Z,11.30
2019-01-26T22:27:55.014Z,11.36
2019-01-26T22:30:22.282Z,11.43
2019-01-26T22:32:49.250Z,11.58
2019-01-26T22:35:16.523Z,11.46
2019-01-26T22:37:43.832Z,11.47
2019-01-26T22:40:11.063Z,11.42
2019-01-26T22:42:38.044Z,11.50
2019-01-26T22:45:04.975Z,11.53
2019-01-26T22:47:31.956Z,11.53
2019-01-26T22:49:58.876Z,11.37
2019-01-26T22:52:25.779Z,11.46
2019-01-26T22:54:52.949Z,11.40
2019-01-26T22:57:19.871Z,11.45
2019-01-26T22:59:46.783Z,11.40
2019-01-26T23:02:13.770Z,11.55
2019-01-26T23:04:41.064Z,11.49
2019-01-26T23:07:08.393Z,11.41
2019-01-26T23:09:38.332Z,11.43
2019-01-26T23:12:05.280Z,11.42
2019-01-26T23:14:34.675Z,11.44
2019-01-26T23:17:02.123Z,11.49
2019-01-26T23:19:30.614Z,11.48
2019-01-26T23:21:58.159Z,11.49
2019-01-26T23:24:25.121Z,11.61
2019-01-26T23:26:51.990Z,11.57
2019-01-26T23:29:18.862Z,11.45
2019-01-26T23:31:45.755Z,11.51
2019-01-26T23:34:13.097Z,11.50
2019-01-26T23:36:40.049Z,11.34
2019-01-26T23:39:07.310Z,11.40
2019-01-26T23:41:34.812Z,11.42
2019-01-26T23:44:01.853Z,11.50
2019-01-26T23:46:29.291Z,11.55
2019-01-26T23:48:56.255Z,11.51
2019-01-26T23:51:23.561Z,11.52
2019-01-26T23:53:51.126Z,11.53
2019-01-26T23:56:18.112Z,11.42
2019-01-26T23:58:45.071Z,11.47
